Time;durP1;ratioP1;P1;durP2;ratioP2;P2;SDS_P1;SDS_P2;PMS_P1;PMS_P2;Temp;Humidity;BMP_temperature;BMP_pressure;BME280_temperature;BME280_humidity;BME280_pressure;Samples;Min_cycle;Max_cycle;Signal;HPM_P1;HPM_P2
2023/05/23 00:01:44;;;;;;;19.77;16.07;;;;;;;18.32;100.00;98877.75;4990436;28;20203;-77
2023/05/23 00:04:16;;;;;;;20.93;16.57;;;;;;;18.31;100.00;98879.59;4993191;28;20203;-77
2023/05/23 00:06:45;;;;;;;19.87;16.70;;;;;;;18.30;100.00;98880.59;4990134;28;20226;-77
2023/05/23 00:09:14;;;;;;;19.47;17.37;;;;;;;18.23;100.00;98881.34;4990139;28;20222;-77
2023/05/23 00:11:44;;;;;;;22.37;18.03;;;;;;;18.21;100.00;98881.50;4979936;28;20203;-77
2023/05/23 00:14:13;;;;;;;19.83;16.90;;;;;;;18.20;100.00;98887.88;4987030;28;20203;-78
2023/05/23 00:16:43;;;;;;;20.83;17.33;;;;;;;18.30;100.00;98890.47;4986949;28;20226;-77
2023/05/23 00:19:13;;;;;;;22.57;17.90;;;;;;;18.33;100.00;98889.31;4990169;28;20192;-77
2023/05/23 00:21:44;;;;;;;19.23;16.87;;;;;;;18.36;100.00;98889.03;4990288;28;20219;-77
2023/05/23 00:24:12;;;;;;;19.53;16.67;;;;;;;18.45;100.00;98891.63;4985695;28;20202;-77
2023/05/23 00:26:40;;;;;;;19.67;17.30;;;;;;;18.38;100.00;98895.06;4985557;28;20653;-76
2023/05/23 00:29:14;;;;;;;19.27;16.00;;;;;;;18.46;100.00;98892.47;4984551;28;20214;-76
2023/05/23 00:31:45;;;;;;;19.37;15.37;;;;;;;18.53;100.00;98894.38;4988152;28;20194;-77
2023/05/23 00:34:14;;;;;;;18.23;16.23;;;;;;;18.52;100.00;98884.63;4982016;28;20306;-77
2023/05/23 00:36:42;;;;;;;19.67;16.63;;;;;;;18.54;100.00;98895.22;4985875;28;20264;-77
2023/05/23 00:39:17;;;;;;;17.80;15.87;;;;;;;18.56;100.00;98891.38;4989984;28;20253;-76
2023/05/23 00:41:47;;;;;;;20.90;16.20;;;;;;;18.37;100.00;98886.19;4981740;28;20203;-76
2023/05/23 00:44:20;;;;;;;19.30;16.07;;;;;;;18.34;100.00;98888.34;4987619;28;20207;-76
2023/05/23 00:46:52;;;;;;;18.43;16.53;;;;;;;18.36;100.00;98887.19;4989809;28;20210;-77
2023/05/23 00:49:22;;;;;;;18.30;16.40;;;;;;;18.25;100.00;98895.47;4988902;28;20195;-77
2023/05/23 00:51:51;;;;;;;18.43;16.43;;;;;;;18.27;100.00;98898.84;4985976;28;20203;-77
2023/05/23 00:54:26;;;;;;;19.47;16.07;;;;;;;18.17;100.00;98892.72;4985519;28;20222;-77
2023/05/23 00:56:55;;;;;;;22.43;17.43;;;;;;;18.13;100.00;98910.91;4983327;28;20203;-77
2023/05/23 00:59:26;;;;;;;19.43;17.27;;;;;;;18.19;100.00;98904.94;4989982;28;20203;-77
2023/05/23 01:01:56;;;;;;;18.40;16.27;;;;;;;18.23;100.00;98909.00;4992793;28;20195;-76
2023/05/23 01:04:27;;;;;;;19.90;16.73;;;;;;;18.22;100.00;98904.63;4993480;28;20286;-77
2023/05/23 01:06:55;;;;;;;19.10;16.40;;;;;;;18.23;100.00;98909.00;4991980;28;20293;-76
2023/05/23 01:09:26;;;;;;;20.17;17.17;;;;;;;18.19;100.00;98906.78;4986625;28;20201;-77
2023/05/23 01:12:03;;;;;;;20.30;17.07;;;;;;;18.14;100.00;98909.91;4992199;28;20205;-77
2023/05/23 01:14:40;;;;;;;22.37;17.80;;;;;;;18.09;100.00;98914.91;4989148;28;20318;-77
2023/05/23 01:17:16;;;;;;;21.10;17.93;;;;;;;18.23;100.00;98909.00;4988349;28;20283;-78
2023/05/23 01:19:56;;;;;;;22.47;17.27;;;;;;;18.23;100.00;98906.31;4993715;28;20203;-76
2023/05/23 01:22:40;;;;;;;19.73;17.73;;;;;;;18.13;100.00;98907.38;4992936;28;20222;-76
2023/05/23 01:25:20;;;;;;;19.70;17.30;;;;;;;18.07;100.00;98905.34;4997561;28;20255;-76
2023/05/23 01:27:55;;;;;;;21.93;18.90;;;;;;;18.14;100.00;98912.59;4997712;28;20206;-77
2023/05/23 01:30:25;;;;;;;21.63;18.93;;;;;;;18.19;100.00;98896.91;4996365;28;20195;-76
2023/05/23 01:32:55;;;;;;;21.50;19.13;;;;;;;18.11;100.00;98910.22;4995961;28;20196;-76
2023/05/23 01:35:26;;;;;;;22.77;19.90;;;;;;;18.09;100.00;98897.97;4995694;28;20209;-77
2023/05/23 01:37:55;;;;;;;23.00;19.90;;;;;;;18.00;100.00;98910.44;4994909;28;20230;-76
2023/05/23 01:40:24;;;;;;;23.07;20.47;;;;;;;17.86;100.00;98906.47;4996282;28;20285;-76
2023/05/23 01:42:57;;;;;;;23.23;20.70;;;;;;;17.75;100.00;98909.31;4990841;28;20679;-76
2023/05/23 01:45:27;;;;;;;23.00;19.77;;;;;;;17.67;100.00;98911.91;4994646;28;20206;-76
2023/05/23 01:47:56;;;;;;;26.47;19.47;;;;;;;17.63;100.00;98910.50;4992747;28;20203;-76
2023/05/23 01:50:25;;;;;;;22.67;18.90;;;;;;;17.56;100.00;98915.59;4993923;28;20199;-77
2023/05/23 01:52:55;;;;;;;22.27;19.43;;;;;;;17.51;100.00;98915.22;4987312;28;20286;-76
2023/05/23 01:55:25;;;;;;;24.43;19.87;;;;;;;17.37;100.00;98910.31;4989818;28;20199;-76
2023/05/23 01:57:56;;;;;;;23.00;19.07;;;;;;;17.36;100.00;98906.81;4985663;28;20305;-77
2023/05/23 02:00:25;;;;;;;24.20;19.80;;;;;;;17.19;100.00;98922.81;4991675;28;20199;-76
2023/05/23 02:02:53;;;;;;;22.33;19.93;;;;;;;17.12;100.00;98923.38;4988607;28;20654;-76
2023/05/23 02:05:22;;;;;;;24.90;19.57;;;;;;;17.05;100.00;98916.06;4991410;28;20206;-76
2023/05/23 02:07:51;;;;;;;24.67;19.13;;;;;;;16.91;100.00;98914.72;4984988;28;20314;-76
2023/05/23 02:10:20;;;;;;;26.93;19.37;;;;;;;16.82;100.00;98918.25;4982671;28;20199;-76
2023/05/23 02:12:48;;;;;;;23.83;18.80;;;;;;;16.74;100.00;98916.28;4986154;28;20242;-76
2023/05/23 02:15:18;;;;;;;19.73;17.43;;;;;;;16.75;100.00;98923.31;4986209;28;20278;-77
2023/05/23 02:17:48;;;;;;;22.63;18.40;;;;;;;16.70;100.00;98909.56;4991667;28;20654;-76
2023/05/23 02:20:17;;;;;;;18.90;16.90;;;;;;;16.53;100.00;98911.09;4992072;28;20227;-76
2023/05/23 02:22:46;;;;;;;17.97;16.07;;;;;;;16.45;100.00;98913.63;4989125;28;20203;-76
2023/05/23 02:25:15;;;;;;;19.67;15.77;;;;;;;16.40;100.00;98920.34;4991093;28;20210;-76
2023/05/23 02:27:43;;;;;;;15.73;14.00;;;;;;;16.40;100.00;98918.53;4985166;28;20278;-75
2023/05/23 02:30:12;;;;;;;15.23;12.83;;;;;;;16.30;100.00;98920.34;4990018;28;20211;-76
2023/05/23 02:32:41;;;;;;;12.70;11.20;;;;;;;16.38;100.00;98914.31;4990754;28;20213;-77
2023/05/23 02:35:10;;;;;;;13.00;11.60;;;;;;;16.31;100.00;98914.06;4988806;28;20210;-77
2023/05/23 02:37:38;;;;;;;18.17;12.17;;;;;;;16.28;100.00;98914.31;4986210;28;20195;-76
2023/05/23 02:40:08;;;;;;;13.63;12.23;;;;;;;16.31;100.00;98920.25;4984674;28;20227;-76
2023/05/23 02:42:37;;;;;;;13.80;11.53;;;;;;;16.25;100.00;98922.63;4990372;28;20199;-76
2023/05/23 02:45:06;;;;;;;16.03;11.90;;;;;;;16.25;100.00;98927.97;4989039;28;20228;-76
2023/05/23 02:47:35;;;;;;;12.63;11.33;;;;;;;16.21;100.00;98930.09;4994079;28;20191;-76
2023/05/23 02:50:05;;;;;;;13.33;11.70;;;;;;;16.18;100.00;98938.34;4986249;28;20698;-77
2023/05/23 02:52:34;;;;;;;14.43;11.40;;;;;;;16.23;100.00;98938.81;4991260;28;20250;-77
2023/05/23 02:55:02;;;;;;;13.00;11.37;;;;;;;16.19;100.00;98945.38;4985196;28;20203;-77
2023/05/23 02:57:30;;;;;;;13.67;11.87;;;;;;;16.23;100.00;98949.50;4980836;28;20206;-76
2023/05/23 02:59:58;;;;;;;12.87;11.57;;;;;;;16.03;100.00;98945.94;4987518;28;20223;-76
2023/05/23 03:02:26;;;;;;;13.53;10.40;;;;;;;16.05;100.00;98947.63;4990939;28;20207;-76
2023/05/23 03:04:56;;;;;;;13.20;10.80;;;;;;;16.06;100.00;98954.66;4989419;28;20191;-76
2023/05/23 03:07:26;;;;;;;12.37;10.97;;;;;;;16.02;100.00;98957.63;4987510;28;20310;-76
2023/05/23 03:09:56;;;;;;;13.30;11.43;;;;;;;16.16;100.00;98955.53;4993866;28;20195;-77
2023/05/23 03:12:24;;;;;;;12.97;10.83;;;;;;;16.07;100.00;98957.19;4986894;28;20207;-76
2023/05/23 03:14:53;;;;;;;13.23;11.83;;;;;;;16.11;100.00;98957.75;4990888;28;20262;-75
2023/05/23 03:17:21;;;;;;;12.77;11.47;;;;;;;16.05;100.00;98966.34;4988360;28;20191;-76
2023/05/23 03:19:50;;;;;;;11.73;10.53;;;;;;;16.05;100.00;98967.19;4989622;28;20215;-76
2023/05/23 03:22:18;;;;;;;11.97;10.77;;;;;;;16.08;100.00;98968.72;4988856;28;20226;-77
2023/05/23 03:24:48;;;;;;;12.63;11.10;;;;;;;15.94;100.00;98970.81;4990463;28;20237;-76
2023/05/23 03:27:16;;;;;;;13.53;11.07;;;;;;;15.88;100.00;98974.03;4992057;28;20711;-76
2023/05/23 03:29:45;;;;;;;13.27;11.87;;;;;;;15.88;100.00;98975.84;4989026;28;20195;-76
2023/05/23 03:32:13;;;;;;;16.53;11.50;;;;;;;15.78;100.00;98977.66;4993532;28;20234;-76
2023/05/23 03:34:42;;;;;;;12.67;11.20;;;;;;;15.63;100.00;98983.38;4989540;28;20205;-75
2023/05/23 03:37:11;;;;;;;12.57;10.83;;;;;;;15.74;100.00;98993.09;4990537;28;20290;-76
2023/05/23 03:39:39;;;;;;;12.33;10.77;;;;;;;15.69;100.00;98995.31;4988748;28;20265;-75
2023/05/23 03:42:10;;;;;;;14.83;11.23;;;;;;;15.66;100.00;98998.25;4981941;28;20195;-76
2023/05/23 03:44:39;;;;;;;15.10;10.87;;;;;;;15.71;100.00;98990.69;4989925;28;20191;-76
2023/05/23 03:47:08;;;;;;;14.13;10.97;;;;;;;15.68;100.00;98983.78;4989112;28;20230;-76
2023/05/23 03:49:37;;;;;;;11.80;10.57;;;;;;;15.61;100.00;98987.97;4984917;28;20191;-76
2023/05/23 03:52:05;;;;;;;13.77;11.00;;;;;;;15.73;100.00;98988.75;4956109;28;20270;-76
2023/05/23 03:54:34;;;;;;;12.73;11.20;;;;;;;15.75;100.00;98989.44;4980785;28;20199;-76
2023/05/23 03:57:02;;;;;;;12.20;10.50;;;;;;;15.78;100.00;98994.50;4983719;28;20237;-75
2023/05/23 03:59:33;;;;;;;12.80;10.87;;;;;;;15.85;100.00;99001.00;4985202;28;20233;-76
2023/05/23 04:02:02;;;;;;;13.97;11.30;;;;;;;15.94;100.00;98994.84;4983109;28;20270;-76
2023/05/23 04:04:31;;;;;;;11.97;10.63;;;;;;;15.96;100.00;98997.38;4984824;28;20202;-76
2023/05/23 04:07:00;;;;;;;12.80;10.93;;;;;;;15.95;100.00;98999.22;4989869;28;20234;-75
2023/05/23 04:09:29;;;;;;;15.73;11.40;;;;;;;15.99;100.00;98997.09;4987108;28;20221;-76
2023/05/23 04:12:00;;;;;;;11.37;10.03;;;;;;;16.01;100.00;98993.31;4991834;28;20203;-77
2023/05/23 04:14:33;;;;;;;12.00;10.17;;;;;;;16.06;100.00;98994.75;4985932;28;20230;-76
2023/05/23 04:17:01;;;;;;;11.77;9.20;;;;;;;16.10;100.00;98993.47;4983790;28;20286;-75
2023/05/23 04:19:30;;;;;;;11.37;9.07;;;;;;;16.11;100.00;98993.31;4986110;28;20247;-76
2023/05/23 04:21:59;;;;;;;13.20;9.47;;;;;;;16.11;100.00;98998.66;4985160;28;20203;-76
2023/05/23 04:24:27;;;;;;;10.40;8.63;;;;;;;16.06;100.00;99002.75;4989334;28;20199;-76
2023/05/23 04:26:56;;;;;;;13.83;8.70;;;;;;;16.21;100.00;98996.91;4987174;28;20227;-77
2023/05/23 04:29:25;;;;;;;8.83;7.53;;;;;;;16.13;100.00;98999.41;4989955;28;20203;-76
2023/05/23 04:31:54;;;;;;;7.83;6.93;;;;;;;16.11;100.00;99004.03;4988741;28;20200;-76
2023/05/23 04:34:23;;;;;;;9.60;7.70;;;;;;;15.96;100.00;99005.41;4992896;28;20218;-76
2023/05/23 04:36:52;;;;;;;8.60;7.70;;;;;;;16.03;100.00;99002.06;4992424;28;20658;-76
2023/05/23 04:39:20;;;;;;;9.93;7.40;;;;;;;16.06;100.00;98998.25;4990424;28;20301;-76
2023/05/23 04:41:51;;;;;;;8.30;7.30;;;;;;;16.07;100.00;99001.78;4992565;28;20226;-75
2023/05/23 04:44:20;;;;;;;10.17;7.20;;;;;;;16.00;100.00;99010.31;4993727;28;20191;-76
2023/05/23 04:46:49;;;;;;;7.73;6.83;;;;;;;16.11;100.00;99016.53;4994002;28;20242;-76
2023/05/23 04:49:20;;;;;;;6.57;5.90;;;;;;;16.08;100.00;99006.97;4991162;28;20206;-76
2023/05/23 04:51:48;;;;;;;7.60;6.17;;;;;;;16.04;100.00;99018.94;4993790;28;20282;-76
2023/05/23 04:54:17;;;;;;;8.47;6.17;;;;;;;16.07;100.00;99017.81;4993470;28;20724;-76
2023/05/23 04:56:45;;;;;;;5.93;5.37;;;;;;;16.02;100.00;99015.56;4989443;28;20258;-76
2023/05/23 04:59:13;;;;;;;5.87;5.23;;;;;;;15.91;100.00;99013.81;4992422;28;20285;-77
2023/05/23 05:01:42;;;;;;;6.00;4.73;;;;;;;15.80;100.00;99029.09;4991547;28;20203;-76
2023/05/23 05:04:10;;;;;;;6.30;4.53;;;;;;;15.78;100.00;99021.22;4985795;28;20291;-76
2023/05/23 05:06:41;;;;;;;5.33;4.30;;;;;;;15.73;100.00;99020.78;4989419;28;20227;-76
2023/05/23 05:09:09;;;;;;;4.67;4.27;;;;;;;15.69;100.00;99032.69;4996194;28;20214;-76
2023/05/23 05:11:38;;;;;;;5.90;4.77;;;;;;;15.66;100.00;99035.66;4989311;28;20226;-75
2023/05/23 05:14:07;;;;;;;6.13;4.60;;;;;;;15.62;100.00;99044.88;4990603;28;20204;-76
2023/05/23 05:16:36;;;;;;;7.73;4.70;;;;;;;15.61;100.00;99044.03;4991694;28;20206;-76
2023/05/23 05:19:05;;;;;;;5.63;5.03;;;;;;;15.56;100.00;99042.72;4989107;28;20302;-76
2023/05/23 05:21:35;;;;;;;6.80;4.97;;;;;;;15.60;100.00;99044.16;4995777;28;20226;-77
2023/05/23 05:24:08;;;;;;;6.20;5.50;;;;;;;15.62;100.00;99050.22;4988124;28;20655;-76
2023/05/23 05:26:37;;;;;;;4.90;4.47;;;;;;;15.61;100.00;99056.56;4991564;28;20203;-76
2023/05/23 05:29:05;;;;;;;4.73;4.33;;;;;;;15.69;100.00;99054.06;4989359;28;20210;-76
2023/05/23 05:31:34;;;;;;;5.37;4.87;;;;;;;15.65;100.00;99063.34;4988962;28;20222;-76
2023/05/23 05:34:03;;;;;;;5.30;4.80;;;;;;;15.69;100.00;99060.25;4995670;28;20199;-76
2023/05/23 05:36:32;;;;;;;5.90;5.10;;;;;;;15.64;100.00;99065.16;4995443;28;20282;-77
2023/05/23 05:39:00;;;;;;;6.13;5.17;;;;;;;15.77;100.00;99056.91;4992630;28;20230;-76
2023/05/23 05:41:30;;;;;;;5.87;4.90;;;;;;;15.94;100.00;99058.13;4991393;28;20225;-76
2023/05/23 05:43:58;;;;;;;5.47;4.97;;;;;;;15.90;100.00;99060.19;4990860;28;20210;-76
2023/05/23 05:46:28;;;;;;;5.33;4.83;;;;;;;15.90;100.00;99060.19;4990058;28;20270;-76
2023/05/23 05:48:56;;;;;;;5.90;5.30;;;;;;;15.94;100.00;99064.31;4991063;28;20255;-76
2023/05/23 05:51:24;;;;;;;5.63;4.77;;;;;;;16.02;100.00;99059.16;4990985;28;20214;-77
2023/05/23 05:53:54;;;;;;;6.90;4.67;;;;;;;16.12;100.00;99075.22;4987382;28;20199;-76
2023/05/23 05:56:23;;;;;;;6.03;4.27;;;;;;;16.02;100.00;99063.66;4987380;28;20206;-77
2023/05/23 05:58:53;;;;;;;5.37;4.87;;;;;;;16.23;100.00;99058.22;4986025;28;20199;-77
2023/05/23 06:01:22;;;;;;;4.73;4.33;;;;;;;16.20;100.00;99072.69;4988685;28;20219;-76
2023/05/23 06:03:50;;;;;;;6.57;4.47;;;;;;;16.11;100.00;99057.47;4986347;28;20206;-76
2023/05/23 06:06:19;;;;;;;4.60;4.20;;;;;;;16.24;100.00;99068.78;4988216;28;20233;-76
2023/05/23 06:08:47;;;;;;;6.80;4.37;;;;;;;16.26;100.00;99066.81;4990849;28;20647;-76
2023/05/23 06:11:15;;;;;;;4.50;4.10;;;;;;;16.20;100.00;99064.66;4985626;28;20207;-76
2023/05/23 06:13:44;;;;;;;4.47;4.07;;;;;;;16.24;100.00;99063.44;4986286;28;20206;-76
2023/05/23 06:16:14;;;;;;;4.40;4.00;;;;;;;16.22;100.00;99064.56;4989292;28;20199;-76
2023/05/23 06:18:42;;;;;;;4.40;3.97;;;;;;;16.27;100.00;99057.81;4990798;28;20206;-76
2023/05/23 06:21:10;;;;;;;5.63;3.93;;;;;;;16.34;100.00;99063.44;4986678;28;20234;-76
2023/05/23 06:23:39;;;;;;;3.97;3.60;;;;;;;16.41;100.00;99061.94;4985083;28;20234;-76
2023/05/23 06:26:09;;;;;;;4.50;4.10;;;;;;;16.39;100.00;99063.88;4990556;28;20199;-76
2023/05/23 06:28:38;;;;;;;4.53;4.00;;;;;;;16.50;100.00;99066.44;4985026;28;20261;-76
2023/05/23 06:31:08;;;;;;;4.07;3.67;;;;;;;16.62;100.00;99064.50;4989841;28;20269;-76
2023/05/23 06:33:38;;;;;;;4.70;3.63;;;;;;;16.62;100.00;99067.16;4987587;28;20207;-77
2023/05/23 06:36:07;;;;;;;6.50;3.63;;;;;;;16.65;100.00;99068.72;4986931;28;20195;-77
2023/05/23 06:38:35;;;;;;;4.83;4.10;;;;;;;16.70;100.00;99059.34;4990800;28;20195;-76
2023/05/23 06:41:05;;;;;;;4.33;3.70;;;;;;;16.75;100.00;99062.41;4981889;28;20230;-76
2023/05/23 06:43:34;;;;;;;4.97;3.83;;;;;;;16.80;100.00;99073.56;4957041;28;20199;-76
2023/05/23 06:46:02;;;;;;;4.27;3.87;;;;;;;16.69;100.00;99086.19;4991450;28;20211;-77
2023/05/23 06:48:30;;;;;;;4.20;3.70;;;;;;;16.66;100.00;99086.44;4989745;28;20199;-76
2023/05/23 06:51:00;;;;;;;4.27;3.80;;;;;;;16.53;100.00;99090.22;4990332;28;20274;-77
2023/05/23 06:53:29;;;;;;;5.80;3.90;;;;;;;16.49;100.00;99083.44;4991191;28;20214;-76
2023/05/23 06:55:57;;;;;;;4.40;4.00;;;;;;;16.52;100.00;99090.38;4982027;28;20667;-76
2023/05/23 06:58:25;;;;;;;4.40;4.00;;;;;;;16.49;100.00;99087.94;4987253;28;20199;-76
2023/05/23 07:00:53;;;;;;;5.87;4.30;;;;;;;16.39;100.00;99093.28;4980219;28;20223;-77
2023/05/23 07:03:22;;;;;;;5.40;4.30;;;;;;;16.48;100.00;99096.97;4990236;28;20327;-76
2023/05/23 07:05:50;;;;;;;5.37;4.40;;;;;;;16.41;100.00;99094.00;4986901;28;20199;-77
2023/05/23 07:08:20;;;;;;;5.63;4.17;;;;;;;16.36;100.00;99095.38;4953718;28;20713;-76
2023/05/23 07:10:49;;;;;;;4.80;4.30;;;;;;;16.41;100.00;99094.00;4985581;28;20234;-76
2023/05/23 07:13:17;;;;;;;4.20;3.80;;;;;;;16.42;100.00;99102.88;4990184;28;20207;-76
2023/05/23 07:15:45;;;;;;;5.20;4.70;;;;;;;16.39;100.00;99087.09;4990129;28;20199;-76
2023/05/23 07:18:14;;;;;;;5.00;4.50;;;;;;;16.39;100.00;99095.94;4988260;28;20214;-76
2023/05/23 07:20:42;;;;;;;5.27;4.77;;;;;;;16.36;100.00;99096.22;4993437;28;20226;-77
2023/05/23 07:23:10;;;;;;;5.37;4.83;;;;;;;16.50;100.00;99097.66;4925205;29;20239;-77
2023/05/23 07:25:41;;;;;;;4.97;4.47;;;;;;;16.54;100.00;99099.09;4929829;29;20201;-76
2023/05/23 07:28:28;;;;;;;5.70;4.83;;;;;;;16.58;100.00;99101.34;4930984;29;20201;-77
2023/05/23 07:30:57;;;;;;;5.80;4.60;;;;;;;16.59;100.00;99089.66;4927366;29;20209;-77
2023/05/23 07:33:26;;;;;;;5.63;4.97;;;;;;;16.64;100.00;99091.09;4928474;29;20241;-77
2023/05/23 07:35:54;;;;;;;6.40;4.43;;;;;;;16.70;100.00;99085.25;4931909;29;20194;-77
2023/05/23 07:38:23;;;;;;;5.03;4.30;;;;;;;16.73;100.00;99088.47;4927553;29;20197;-77
2023/05/23 07:40:55;;;;;;;6.57;4.70;;;;;;;16.83;100.00;99094.66;4945520;28;20205;-76
2023/05/23 07:43:41;;;;;;;5.87;4.93;;;;;;;16.83;100.00;99086.66;4989922;28;20241;-77
2023/05/23 07:46:09;;;;;;;4.67;4.27;;;;;;;16.96;100.00;99090.88;4987909;28;20209;-76
2023/05/23 07:48:37;;;;;;;6.73;4.60;;;;;;;17.09;100.00;99091.47;4986232;28;20195;-77
2023/05/23 07:51:06;;;;;;;6.33;4.40;;;;;;;17.10;100.00;99087.78;4990436;28;20198;-77
2023/05/23 07:53:38;;;;;;;7.50;4.37;;;;;;;17.26;100.00;99080.00;4927097;29;20240;-77
2023/05/23 07:56:08;;;;;;;4.70;4.20;;;;;;;17.36;100.00;99083.53;4927850;29;20205;-77
2023/05/23 07:58:37;;;;;;;5.90;3.90;;;;;;;17.40;100.00;99089.44;4930541;29;20209;-77
2023/05/23 08:01:05;;;;;;;4.70;3.57;;;;;;;17.55;100.00;99088.00;4928249;29;20205;-77
2023/05/23 08:03:33;;;;;;;5.70;4.00;;;;;;;17.56;100.00;99087.00;4928923;29;20208;-77
2023/05/23 08:06:02;;;;;;;5.10;3.97;;;;;;;17.65;100.00;99085.28;4933027;29;20200;-77
2023/05/23 08:08:31;;;;;;;5.03;3.83;;;;;;;17.61;100.00;99092.78;4923170;29;20400;-77
2023/05/23 08:10:59;;;;;;;4.10;3.70;;;;;;;18.02;100.00;99096.06;4942627;28;20266;-77
2023/05/23 08:13:29;;;;;;;4.47;3.77;;;;;;;18.14;100.00;99094.88;4990324;28;20225;-77
2023/05/23 08:15:57;;;;;;;3.90;3.30;;;;;;;18.15;100.00;99091.25;4990385;28;20205;-77
2023/05/23 08:18:25;;;;;;;4.17;3.40;;;;;;;18.12;100.00;99096.88;4988741;28;20238;-77
2023/05/23 08:20:54;;;;;;;3.90;3.50;;;;;;;18.24;100.00;99094.88;4989914;28;20556;-77
2023/05/23 08:23:22;;;;;;;3.67;3.30;;;;;;;18.02;100.00;99096.06;4992521;28;20219;-77
2023/05/23 08:25:52;;;;;;;3.40;3.10;;;;;;;17.94;100.00;99094.13;4943554;28;20215;-76
2023/05/23 08:28:21;;;;;;;3.10;2.80;;;;;;;17.88;100.00;99097.41;4994562;28;20245;-77
2023/05/23 08:30:52;;;;;;;5.20;3.40;;;;;;;17.74;100.00;99097.84;4990962;28;20203;-77
2023/05/23 08:33:21;;;;;;;3.63;3.33;;;;;;;17.68;100.00;99104.63;4992085;28;20195;-77
2023/05/23 08:35:49;;;;;;;5.17;3.33;;;;;;;17.66;100.00;99108.41;4994294;28;20225;-77
2023/05/23 08:38:20;;;;;;;3.37;3.03;;;;;;;17.54;100.00;99112.25;4992205;28;20199;-77
2023/05/23 08:40:51;;;;;;;4.30;2.90;;;;;;;17.60;100.00;99115.22;4988235;28;20191;-76
2023/05/23 08:43:19;;;;;;;3.67;2.93;;;;;;;17.54;100.00;99117.59;4996583;28;20210;-77
2023/05/23 08:45:52;;;;;;;3.37;2.87;;;;;;;17.61;100.00;99114.22;4990057;28;20282;-77
2023/05/23 08:48:22;;;;;;;3.87;2.80;;;;;;;17.68;100.00;99122.53;4990000;28;20291;-77
2023/05/23 08:50:51;;;;;;;3.87;2.90;;;;;;;17.65;100.00;99117.44;4996394;28;20199;-77
2023/05/23 08:53:21;;;;;;;5.27;3.17;;;;;;;17.64;100.00;99121.13;4985010;28;20227;-77
2023/05/23 08:55:50;;;;;;;3.77;3.17;;;;;;;17.64;100.00;99119.28;4995009;28;20218;-77
2023/05/23 08:58:21;;;;;;;3.60;3.30;;;;;;;17.60;100.00;99135.78;4992656;28;20195;-77
2023/05/23 09:00:51;;;;;;;4.57;3.27;;;;;;;17.62;100.00;99129.31;4996218;28;20750;-76
2023/05/23 09:03:22;;;;;;;3.70;2.90;;;;;;;17.71;100.00;99131.16;4986771;28;20229;-76
2023/05/23 09:05:52;;;;;;;3.50;3.20;;;;;;;17.68;100.00;99130.56;4990624;28;20282;-77
2023/05/23 09:08:20;;;;;;;3.40;3.10;;;;;;;17.59;100.00;99134.94;4991048;28;20195;-76
2023/05/23 09:10:50;;;;;;;4.60;3.30;;;;;;;17.59;100.00;99140.31;4989468;28;20222;-78
2023/05/23 09:13:19;;;;;;;3.50;3.20;;;;;;;17.59;100.00;99145.66;4990851;28;20203;-76
2023/05/23 09:15:58;;;;;;;4.10;3.67;;;;;;;17.48;100.00;99145.81;4992863;28;20218;-76
2023/05/23 09:18:34;;;;;;;4.30;3.67;;;;;;;17.46;100.00;99140.59;4991959;28;20233;-76
2023/05/23 09:21:02;;;;;;;4.03;3.63;;;;;;;17.65;100.00;99145.06;4988803;28;20277;-76
2023/05/23 09:23:31;;;;;;;4.70;3.97;;;;;;;17.70;100.00;99145.53;4991218;28;20225;-76
2023/05/23 09:26:03;;;;;;;3.93;3.57;;;;;;;17.82;100.00;99148.03;4991731;28;20196;-75
2023/05/23 09:28:32;;;;;;;4.03;3.60;;;;;;;18.13;100.00;99138.78;4991076;28;20291;-75
2023/05/23 09:31:01;;;;;;;3.67;3.30;;;;;;;18.28;100.00;99149.88;4995724;28;20199;-76
2023/05/23 09:33:35;;;;;;;5.07;3.70;;;;;;;18.62;100.00;99146.59;4995741;28;20199;-76
2023/05/23 09:36:05;;;;;;;4.47;3.27;;;;;;;18.37;100.00;99140.97;4986129;28;20209;-76
2023/05/23 09:38:38;;;;;;;3.30;3.00;;;;;;;18.31;100.00;99144.22;4988019;28;20203;-76
2023/05/23 09:41:06;;;;;;;3.83;3.03;;;;;;;18.00;100.00;99149.84;4990572;28;20214;-75
2023/05/23 09:43:35;;;;;;;3.87;3.17;;;;;;;17.78;100.00;99150.19;4995846;28;20305;-76
2023/05/23 09:46:08;;;;;;;3.07;2.77;;;;;;;17.81;100.00;99147.22;4983743;28;20207;-78
2023/05/23 09:48:38;;;;;;;4.80;3.07;;;;;;;17.74;100.00;99160.31;4991590;28;20242;-77
2023/05/23 09:51:07;;;;;;;3.00;2.70;;;;;;;17.91;100.00;99147.19;4990650;28;20770;-77
2023/05/23 09:53:36;;;;;;;3.97;2.70;;;;;;;17.91;100.00;99156.06;4987367;28;20247;-76
2023/05/23 09:56:05;;;;;;;3.30;3.00;;;;;;;17.97;100.00;99155.50;4990307;28;20191;-77
2023/05/23 09:58:35;;;;;;;3.20;2.90;;;;;;;17.96;100.00;99155.66;4988180;28;20199;-76
2023/05/23 10:01:05;;;;;;;3.80;2.90;;;;;;;17.78;100.00;99162.75;4989054;28;20666;-77
2023/05/23 10:03:39;;;;;;;3.20;2.77;;;;;;;17.90;100.00;99165.09;4991979;28;20246;-77
2023/05/23 10:06:17;;;;;;;4.57;2.70;;;;;;;17.74;100.00;99170.19;4989339;28;20276;-77
2023/05/23 10:08:52;;;;;;;2.97;2.33;;;;;;;17.93;100.00;99161.28;4986831;28;20207;-77
2023/05/23 10:11:51;;;;;;;4.13;2.43;;;;;;;17.80;100.00;99175.00;4988796;28;20222;-77
2023/05/23 10:14:19;;;;;;;3.60;2.40;;;;;;;17.90;100.00;99175.81;4995007;28;20195;-77
2023/05/23 10:16:58;;;;;;;3.17;2.20;;;;;;;18.04;100.00;99174.50;4984381;28;20206;-79
2023/05/23 10:19:35;;;;;;;3.30;2.20;;;;;;;17.83;100.00;99171.16;4986733;28;20207;-77
2023/05/23 10:22:09;;;;;;;3.57;2.03;;;;;;;17.74;100.00;99178.22;4990728;28;20191;-77
2023/05/23 10:24:38;;;;;;;4.13;2.43;;;;;;;17.69;100.00;99169.75;4989238;28;20199;-76
2023/05/23 10:27:08;;;;;;;5.67;2.47;;;;;;;17.73;100.00;99177.38;4985551;28;20199;-77
2023/05/23 10:29:36;;;;;;;2.83;2.03;;;;;;;17.86;100.00;99186.97;4992033;28;20203;-77
2023/05/23 10:32:07;;;;;;;2.30;1.90;;;;;;;17.80;100.00;99182.19;4987401;28;20199;-77
2023/05/23 10:34:44;;;;;;;2.10;1.90;;;;;;;17.89;100.00;99187.53;4985471;28;20255;-77
2023/05/23 10:37:20;;;;;;;2.67;1.90;;;;;;;18.01;100.00;99189.03;4986649;28;20286;-76
2023/05/23 10:39:57;;;;;;;2.10;1.87;;;;;;;18.06;100.00;99188.63;4986863;28;20210;-77
2023/05/23 10:42:35;;;;;;;1.77;1.60;;;;;;;17.84;100.00;99187.09;4988731;28;20206;-78
2023/05/23 10:45:17;;;;;;;2.00;1.80;;;;;;;17.62;100.00;99200.78;4989469;28;20286;-76
2023/05/23 10:47:47;;;;;;;1.80;1.70;;;;;;;17.61;100.00;99199.09;4994138;28;20201;-77
2023/05/23 10:50:31;;;;;;;4.23;2.00;;;;;;;17.69;100.00;99201.91;4991313;28;20214;-77
2023/05/23 10:53:03;;;;;;;2.37;1.93;;;;;;;17.62;100.00;99192.75;4988037;28;20195;-77
2023/05/23 10:55:50;;;;;;;2.20;2.00;;;;;;;17.83;100.00;99200.66;5132184;27;20615;-76
2023/05/23 10:58:22;;;;;;;2.90;2.00;;;;;;;17.90;100.00;99204.44;5047687;28;20208;-77
2023/05/23 11:00:55;;;;;;;2.60;1.80;;;;;;;17.83;100.00;99206.84;5042836;28;20288;-76
2023/05/23 11:03:33;;;;;;;2.10;1.87;;;;;;;17.54;100.00;99208.66;5041367;28;20208;-76
2023/05/23 11:06:03;;;;;;;1.73;1.63;;;;;;;17.51;100.00;99201.78;5041221;28;20252;-76
2023/05/23 11:08:39;;;;;;;2.07;1.70;;;;;;;17.57;100.00;99211.09;5040357;28;20276;-76
2023/05/23 11:11:16;;;;;;;1.73;1.60;;;;;;;17.59;100.00;99207.28;5042337;28;20247;-76
2023/05/23 11:13:56;;;;;;;2.83;1.53;;;;;;;17.63;100.00;99213.19;5043948;28;20225;-76
2023/05/23 11:16:24;;;;;;;1.97;1.40;;;;;;;17.76;100.00;99208.44;5046070;28;20201;-76
2023/05/23 11:18:52;;;;;;;1.37;1.27;;;;;;;17.73;100.00;99200.66;5042152;28;20201;-76
2023/05/23 11:21:23;;;;;;;1.50;1.40;;;;;;;18.18;100.00;99198.19;5043344;28;20287;-77
2023/05/23 11:23:54;;;;;;;1.50;1.40;;;;;;;18.38;100.00;99204.34;5044696;28;20661;-76
2023/05/23 11:26:31;;;;;;;2.10;1.30;;;;;;;18.62;100.00;99197.59;5037246;28;20200;-77
2023/05/23 11:29:02;;;;;;;1.40;1.10;;;;;;;19.06;100.00;99204.03;5067265;28;20227;-77
2023/05/23 11:31:30;;;;;;;1.87;1.20;;;;;;;19.45;100.00;99204.59;5130369;27;20206;-76
2023/05/23 11:33:58;;;;;;;3.50;1.30;;;;;;;19.48;100.00;99201.59;5132573;27;20207;-77